Time;durP1;ratioP1;P1;durP2;ratioP2;P2;SDS_P1;SDS_P2;PMS_P1;PMS_P2;Temp;Humidity;BMP_temperature;BMP_pressure;BME280_temperature;BME280_humidity;BME280_pressure;Samples;Min_cycle;Max_cycle;Signal;HPM_P1;HPM_P2
2021/01/18 00:01:34;;;;;;;1.40;1.30;;;;;;;-5.53;67.96;98015.36;1646325;86;21356;-68
2021/01/18 00:04:03;;;;;;;16.23;5.37;;;;;;;-5.46;67.41;98024.44;1646226;86;21619;-68
2021/01/18 00:06:33;;;;;;;3.58;2.47;;;;;;;-5.61;67.90;98021.07;1646326;86;21309;-68
2021/01/18 00:09:02;;;;;;;6.42;3.62;;;;;;;-5.59;67.92;98023.11;1646301;86;21182;-69
2021/01/18 00:11:30;;;;;;;2.47;2.27;;;;;;;-5.55;67.54;98024.68;1646421;86;21392;-69
2021/01/18 00:14:01;;;;;;;1.90;1.75;;;;;;;-5.57;68.17;98023.91;1646752;86;21214;-68
2021/01/18 00:16:29;;;;;;;6.62;3.42;;;;;;;-5.52;67.78;98025.42;1646643;86;21337;-68
2021/01/18 00:18:57;;;;;;;1.65;1.55;;;;;;;-5.46;67.72;98024.44;1646243;86;21175;-69
2021/01/18 00:21:25;;;;;;;2.55;2.05;;;;;;;-5.41;67.44;98025.94;1646088;86;21179;-68
2021/01/18 00:23:53;;;;;;;2.60;1.75;;;;;;;-5.37;67.25;98033.05;1646121;86;21611;-67
2021/01/18 00:26:23;;;;;;;3.00;2.05;;;;;;;-5.34;67.36;98036.31;1646262;86;21259;-68
2021/01/18 00:28:51;;;;;;;2.70;0.70;;;;;;;-5.35;67.47;98035.08;1646487;86;21337;-68
2021/01/18 00:31:19;;;;;;;2.87;2.60;;;;;;;-5.32;67.25;98041.31;1646764;86;21324;-68
2021/01/18 00:33:48;;;;;;;1.82;1.50;;;;;;;-5.29;67.07;98041.22;1646311;86;21754;-67
2021/01/18 00:36:16;;;;;;;0.50;0.50;;;;;;;-5.25;66.90;98038.19;1646325;86;21187;-68
2021/01/18 00:38:44;;;;;;;1.55;1.45;;;;;;;-5.24;66.32;98035.59;1646239;86;21166;-67
2021/01/18 00:41:13;;;;;;;2.80;1.35;;;;;;;-5.25;66.57;98034.39;1646353;86;21163;-68
2021/01/18 00:43:41;;;;;;;1.62;1.37;;;;;;;-5.24;66.62;98030.96;1635598;86;21588;-67
2021/01/18 00:46:09;;;;;;;0.62;0.53;;;;;;;-5.24;66.88;98024.20;1676507;85;21172;-68
2021/01/18 00:48:39;;;;;;;2.50;2.15;;;;;;;-5.29;66.90;98028.56;1676515;85;21145;-67
2021/01/18 00:51:07;;;;;;;2.15;1.50;;;;;;;-5.28;66.76;98029.80;1676381;85;21192;-67
2021/01/18 00:53:36;;;;;;;1.98;1.52;;;;;;;-5.28;67.05;98021.37;1676382;85;21163;-67
2021/01/18 00:56:26;;;;;;;1.70;1.40;;;;;;;-5.32;66.99;98021.06;1676718;85;21317;-67
2021/01/18 00:58:54;;;;;;;1.35;1.27;;;;;;;-5.37;66.79;98026.25;1601883;89;21648;-68
2021/01/18 01:01:41;;;;;;;;;;;;;;;-5.33;66.58;98023.22;1604374;89;21191;-67
2021/01/18 01:04:09;;;;;;;2.83;1.72;;;;;;;-5.37;66.00;98024.98;1602435;89;20166;-67
2021/01/18 01:06:38;;;;;;;1.45;1.35;;;;;;;-5.37;65.90;98016.12;1571824;91;21170;-68
2021/01/18 01:09:06;;;;;;;2.47;2.27;;;;;;;-5.39;65.24;98018.31;1602021;89;21199;-68
2021/01/18 01:11:34;;;;;;;2.58;1.57;;;;;;;-5.54;65.08;98014.97;1571788;91;21163;-65
2021/01/18 01:14:02;;;;;;;1.95;1.82;;;;;;;-5.59;65.04;98010.03;1602045;88;21229;-65
2021/01/18 01:16:30;;;;;;;6.58;2.37;;;;;;;-5.60;65.15;98012.62;1601913;88;21219;-65
2021/01/18 01:18:58;;;;;;;3.25;2.00;;;;;;;-5.56;64.96;98004.07;1602068;88;21194;-68
2021/01/18 01:21:26;;;;;;;2.72;1.17;;;;;;;-5.49;64.86;98001.76;1602090;89;21219;-68
2021/01/18 01:23:55;;;;;;;6.83;1.50;;;;;;;-5.43;64.46;98004.93;1602174;89;21607;-67
2021/01/18 01:26:23;;;;;;;1.32;1.22;;;;;;;-5.61;63.83;98007.99;1571938;90;21186;-68
2021/01/18 01:28:52;;;;;;;1.22;1.15;;;;;;;-5.65;64.19;98003.89;1602043;88;21611;-68
2021/01/18 01:31:20;;;;;;;1.85;1.75;;;;;;;-5.71;64.42;98005.30;1601846;89;21191;-68
2021/01/18 01:33:50;;;;;;;2.65;1.67;;;;;;;-5.77;64.83;98006.32;1571252;91;21190;-68
2021/01/18 01:36:18;;;;;;;1.25;1.25;;;;;;;-5.72;64.92;98003.67;1602030;89;21238;-67
2021/01/18 01:38:46;;;;;;;2.27;1.25;;;;;;;-5.70;65.02;98003.18;1571882;90;21187;-66
2021/01/18 01:41:14;;;;;;;2.25;1.42;;;;;;;-5.71;64.97;97995.63;1602435;89;21235;-66
2021/01/18 01:43:42;;;;;;;1.98;1.85;;;;;;;-5.69;65.06;97995.99;1602862;89;21274;-66
2021/01/18 01:46:11;;;;;;;0.75;0.60;;;;;;;-5.71;65.21;97991.39;1572085;90;21598;-65
2021/01/18 01:48:39;;;;;;;2.05;1.70;;;;;;;-5.67;65.28;97990.44;1602267;88;21247;-65
2021/01/18 01:51:08;;;;;;;0.82;0.80;;;;;;;-5.72;65.40;97991.45;1602103;88;21223;-64
2021/01/18 01:53:37;;;;;;;1.87;1.57;;;;;;;-5.68;65.40;97991.30;1601903;89;21618;-65
2021/01/18 01:56:25;;;;;;;2.08;1.85;;;;;;;-5.70;65.36;98001.91;1571871;90;21587;-65
2021/01/18 01:58:54;;;;;;;1.07;1.07;;;;;;;-5.68;65.37;97998.09;1699003;83;21167;-65
2021/01/18 02:01:22;;;;;;;2.40;1.32;;;;;;;-5.68;65.64;98000.16;1698944;83;21139;-65
2021/01/18 02:03:53;;;;;;;4.30;2.27;;;;;;;-5.72;65.46;98001.14;1698938;83;21173;-65
2021/01/18 02:06:22;;;;;;;1.77;1.25;;;;;;;-5.75;65.58;98004.56;1698973;83;21178;-68
2021/01/18 02:08:50;;;;;;;1.95;0.88;;;;;;;-5.71;65.34;97996.89;1699171;83;21159;-68
2021/01/18 02:11:19;;;;;;;1.35;1.25;;;;;;;-5.62;65.26;97992.41;1699161;83;21188;-68
2021/01/18 02:14:13;;;;;;;1.32;1.27;;;;;;;-5.56;64.79;97984.63;1698919;83;21599;-68
2021/01/18 02:17:04;;;;;;;1.52;1.35;;;;;;;-5.50;64.82;97986.17;1692956;83;21199;-68
2021/01/18 02:19:57;;;;;;;1.72;1.62;;;;;;;-5.46;64.52;97973.39;1692903;85;21167;-67
2021/01/18 02:23:15;;;;;;;2.17;1.60;;;;;;;-5.50;64.40;97971.83;1692317;84;21164;-67
2021/01/18 02:26:30;;;;;;;1.40;1.30;;;;;;;-5.58;64.28;97972.91;1693022;83;21187;-67
2021/01/18 02:29:23;;;;;;;0.80;0.80;;;;;;;-5.75;64.24;97980.54;1692917;83;21691;-68
2021/01/18 02:32:23;;;;;;;1.05;1.00;;;;;;;-5.80;64.34;97973.50;1692759;83;21603;-67
2021/01/18 02:35:39;;;;;;;1.65;1.32;;;;;;;-5.71;64.46;97975.39;1692767;85;21136;-67
2021/01/18 02:38:29;;;;;;;0.50;0.50;;;;;;;-5.64;64.20;97973.09;1692546;84;21167;-64
2021/01/18 02:41:14;;;;;;;1.25;1.15;;;;;;;-5.57;63.91;97975.41;1692729;84;21293;-63
2021/01/18 02:43:55;;;;;;;0.90;0.42;;;;;;;-5.50;63.82;97971.83;1692885;83;21171;-63
2021/01/18 02:46:25;;;;;;;1.45;1.20;;;;;;;-5.48;62.79;97974.29;1692810;84;21580;-65
2021/01/18 02:48:55;;;;;;;1.00;1.00;;;;;;;-5.52;62.12;97974.81;1692813;83;21676;-67
2021/01/18 02:51:26;;;;;;;0.40;0.30;;;;;;;-5.48;62.45;97976.82;1692825;84;21345;-68
2021/01/18 02:54:00;;;;;;;1.27;1.05;;;;;;;-5.48;62.24;97971.33;1692604;83;21305;-68
2021/01/18 02:56:33;;;;;;;0.80;0.80;;;;;;;-5.54;62.13;97982.07;1692797;83;21644;-69
2021/01/18 02:59:03;;;;;;;0.75;0.75;;;;;;;-5.54;61.98;97982.07;1692903;83;21167;-67
2021/01/18 03:02:24;;;;;;;1.42;1.32;;;;;;;-5.47;61.74;97978.48;1692929;83;21175;-66
2021/01/18 03:05:13;;;;;;;1.75;1.07;;;;;;;-5.54;61.57;97981.64;1692719;84;21301;-69
2021/01/18 03:08:04;;;;;;;2.58;1.60;;;;;;;-5.48;61.66;97984.41;1692763;83;21687;-66
2021/01/18 03:11:00;;;;;;;0.53;0.53;;;;;;;-5.61;62.45;97981.43;1692763;83;21294;-69
2021/01/18 03:13:49;;;;;;;0.42;0.42;;;;;;;-5.62;62.57;97978.50;1697985;84;21183;-67
2021/01/18 03:16:22;;;;;;;1.10;1.00;;;;;;;-5.59;62.60;97977.57;1697873;83;21604;-65
2021/01/18 03:18:52;;;;;;;1.50;1.40;;;;;;;-5.52;62.77;97978.61;1697915;83;21583;-68
2021/01/18 03:21:20;;;;;;;0.62;0.62;;;;;;;-5.52;62.75;97973.98;1698216;83;21250;-67
2021/01/18 03:23:49;;;;;;;1.50;1.15;;;;;;;-5.63;62.63;97969.67;1698096;84;21215;-65
2021/01/18 03:26:17;;;;;;;1.35;1.20;;;;;;;-5.68;62.16;97976.13;1698266;83;21206;-66
2021/01/18 03:28:46;;;;;;;5.55;1.00;;;;;;;-5.64;62.18;97978.96;1698860;84;21179;-66
2021/01/18 03:31:16;;;;;;;1.25;0.75;;;;;;;-5.62;62.41;97977.23;1733106;81;21285;-66
2021/01/18 03:33:44;;;;;;;0.78;0.78;;;;;;;-5.57;62.51;97976.67;1733142;81;21313;-65
2021/01/18 03:36:12;;;;;;;0.93;0.72;;;;;;;-5.54;62.99;97974.48;1733309;81;21158;-63
2021/01/18 03:38:42;;;;;;;1.10;1.07;;;;;;;-5.48;63.43;97973.86;1733437;83;21139;-65
2021/01/18 03:41:12;;;;;;;1.57;0.85;;;;;;;-5.39;63.33;97970.23;1733420;83;21166;-65
2021/01/18 03:43:41;;;;;;;0.75;0.50;;;;;;;-5.35;63.29;97973.06;1733543;81;21166;-65
2021/01/18 03:46:09;;;;;;;1.10;1.00;;;;;;;-5.29;63.46;97976.23;1733443;81;21576;-65
2021/01/18 03:48:37;;;;;;;1.35;1.15;;;;;;;-5.24;63.57;97974.01;1733231;81;21586;-65
2021/01/18 03:51:06;;;;;;;0.65;0.57;;;;;;;-5.27;63.76;97975.77;1733507;81;21158;-66
2021/01/18 03:53:34;;;;;;;1.15;0.85;;;;;;;-5.30;63.74;97974.60;1733395;83;21136;-65
2021/01/18 03:56:02;;;;;;;2.02;1.60;;;;;;;-5.23;63.61;97976.50;1733363;83;21123;-65
2021/01/18 03:58:30;;;;;;;3.52;1.30;;;;;;;-5.20;63.39;97981.47;1733442;82;21175;-66
2021/01/18 04:00:59;;;;;;;0.95;0.95;;;;;;;-5.23;63.59;97973.97;1733284;82;22298;-66
2021/01/18 04:03:28;;;;;;;1.20;1.15;;;;;;;-5.22;63.92;97974.80;1733294;81;21392;-65
2021/01/18 04:05:57;;;;;;;1.80;1.45;;;;;;;-5.20;63.64;97976.41;1733227;83;21214;-66
2021/01/18 04:08:25;;;;;;;0.75;0.72;;;;;;;-5.48;63.83;97969.23;1733269;81;21348;-66
2021/01/18 04:10:53;;;;;;;0.88;0.88;;;;;;;-5.46;64.05;97972.56;1733162;81;21356;-66
2021/01/18 04:13:22;;;;;;;0.55;0.55;;;;;;;-5.36;63.40;97974.77;1719670;83;21187;-64
2021/01/18 04:15:50;;;;;;;2.08;0.68;;;;;;;-5.31;63.53;97978.00;1717677;83;21163;-63
2021/01/18 04:18:19;;;;;;;0.55;0.40;;;;;;;-5.31;63.30;97978.44;1717498;83;21132;-64
2021/01/18 04:20:47;;;;;;;1.10;0.95;;;;;;;-5.31;63.17;97975.91;1717314;83;21568;-65
2021/01/18 04:23:16;;;;;;;1.95;0.50;;;;;;;-5.32;63.18;97977.59;1717636;83;21187;-64
2021/01/18 04:25:44;;;;;;;1.02;0.80;;;;;;;-5.30;62.86;97979.66;1717314;83;21321;-66
2021/01/18 04:28:12;;;;;;;0.40;0.40;;;;;;;-5.28;62.86;97971.58;1717428;83;21163;-65
2021/01/18 04:30:44;;;;;;;0.95;0.60;;;;;;;-5.25;62.70;97971.11;1717643;83;21163;-65
2021/01/18 04:33:13;;;;;;;1.45;0.72;;;;;;;-5.32;62.65;97977.59;1718237;83;21172;-69
2021/01/18 04:35:41;;;;;;;0.55;0.55;;;;;;;-5.30;62.90;97976.30;1717764;83;21144;-64
2021/01/18 04:38:10;;;;;;;2.20;0.37;;;;;;;-5.29;62.44;97979.20;1717703;83;21156;-64
2021/01/18 04:40:38;;;;;;;1.00;0.62;;;;;;;-5.29;62.62;97975.41;1717539;83;21587;-66
2021/01/18 04:43:10;;;;;;;0.30;0.30;;;;;;;-5.29;62.29;97982.56;1716958;83;21730;-68
2021/01/18 04:45:38;;;;;;;0.88;0.88;;;;;;;-5.35;62.86;97981.49;1717539;83;21139;-66
2021/01/18 04:48:07;;;;;;;1.65;1.10;;;;;;;-5.36;62.85;97977.30;1717453;83;21568;-67
2021/01/18 04:50:35;;;;;;;2.65;0.80;;;;;;;-5.31;62.87;97977.17;1717439;83;21171;-67
2021/01/18 04:53:17;;;;;;;1.30;0.72;;;;;;;-5.27;62.83;97981.27;1717690;83;21151;-69
2021/01/18 04:56:27;;;;;;;0.33;0.33;;;;;;;-5.27;62.66;97988.42;1717500;83;21186;-65
2021/01/18 04:59:00;;;;;;;1.35;1.27;;;;;;;-5.32;63.05;97982.66;1724317;83;21185;-66
2021/01/18 05:01:30;;;;;;;0.47;0.40;;;;;;;-5.28;62.99;97994.78;1719224;83;21333;-68
2021/01/18 05:04:05;;;;;;;0.47;0.47;;;;;;;-5.31;63.24;97999.52;1693836;83;21147;-66
2021/01/18 05:06:46;;;;;;;0.37;0.17;;;;;;;-5.27;62.99;98006.14;1716962;83;21672;-68
2021/01/18 05:09:18;;;;;;;0.75;0.75;;;;;;;-5.24;62.99;97998.05;1717841;83;21649;-69
2021/01/18 05:11:48;;;;;;;0.47;0.47;;;;;;;-5.27;62.93;98006.14;1717857;83;21575;-68
2021/01/18 05:14:17;;;;;;;1.00;0.75;;;;;;;-5.27;62.93;98011.20;1717427;83;21624;-71
2021/01/18 05:16:52;;;;;;;1.42;1.27;;;;;;;-5.24;62.88;98009.45;1717888;83;21159;-68
2021/01/18 05:19:24;;;;;;;1.40;0.93;;;;;;;-5.24;63.03;98003.95;1717448;83;21144;-66
2021/01/18 05:21:53;;;;;;;0.95;0.88;;;;;;;-5.25;62.02;98005.28;1717745;83;21183;-69
2021/01/18 05:24:22;;;;;;;1.35;0.95;;;;;;;-5.45;60.68;98006.69;1718047;83;21255;-68
2021/01/18 05:27:24;;;;;;;0.98;0.80;;;;;;;-5.47;60.61;98002.52;1717537;83;21368;-68
2021/01/18 05:29:57;;;;;;;1.40;1.07;;;;;;;-5.50;60.66;98004.72;1717343;83;21152;-71
2021/01/18 05:32:27;;;;;;;0.20;0.20;;;;;;;-5.54;60.93;98004.84;1715893;83;21313;-66
2021/01/18 05:35:34;;;;;;;0.90;0.90;;;;;;;-5.52;60.47;98005.18;1715885;83;21866;-66
2021/01/18 05:38:09;;;;;;;0.60;0.60;;;;;;;-5.51;60.32;98006.02;1662056;86;21144;-65
2021/01/18 05:41:07;;;;;;;1.12;1.12;;;;;;;-5.45;60.79;98013.02;1644854;86;21188;-65
2021/01/18 05:43:36;;;;;;;0.23;0.23;;;;;;;-5.51;60.10;98014.88;1749711;82;21184;-67
2021/01/18 05:46:05;;;;;;;1.32;1.22;;;;;;;-5.48;60.48;98017.30;1752817;80;21188;-66
2021/01/18 05:48:38;;;;;;;3.70;3.40;;;;;;;-5.52;60.08;98012.77;1758145;80;21149;-66
2021/01/18 05:51:07;;;;;;;1.05;1.05;;;;;;;-5.46;59.73;98016.41;1745661;80;21156;-66
2021/01/18 05:53:35;;;;;;;3.15;2.08;;;;;;;-5.40;59.50;98022.55;1740579;82;21128;-65
2021/01/18 05:56:26;;;;;;;1.25;1.15;;;;;;;-5.47;58.96;98024.03;1741415;82;21160;-65
2021/01/18 05:58:54;;;;;;;0.70;0.70;;;;;;;-5.53;58.96;98026.31;1750010;81;21251;-66
2021/01/18 06:01:39;;;;;;;1.25;0.93;;;;;;;-5.54;59.10;98026.34;1710725;84;21687;-67
2021/01/18 06:04:16;;;;;;;1.82;1.72;;;;;;;-5.53;59.14;98028.84;1747835;81;21136;-66
2021/01/18 06:06:55;;;;;;;1.27;0.72;;;;;;;-5.49;59.13;98026.63;1748629;81;21223;-66
2021/01/18 06:09:46;;;;;;;1.50;1.05;;;;;;;-5.57;59.44;98028.54;1706179;83;21175;-65
2021/01/18 06:12:26;;;;;;;1.27;1.00;;;;;;;-5.55;59.40;98034.80;1694308;84;21165;-66
2021/01/18 06:15:13;;;;;;;3.20;2.15;;;;;;;-5.49;59.88;98024.53;1695927;84;21600;-65
2021/01/18 06:17:45;;;;;;;2.25;2.08;;;;;;;-5.49;59.77;98028.33;1676354;85;21194;-67
2021/01/18 06:20:20;;;;;;;3.17;2.02;;;;;;;-5.45;59.96;98024.41;1675113;85;21464;-68
2021/01/18 06:22:58;;;;;;;0.70;0.70;;;;;;;-5.39;60.02;98028.02;1663706;85;21165;-69
2021/01/18 06:25:37;;;;;;;0.55;0.55;;;;;;;-5.32;59.48;98033.72;1673794;85;21161;-68
2021/01/18 06:35:37;;;;;;;0.42;0.42;;;;;;;-5.30;60.70;98036.61;1615054;89;21217;-66
2021/01/18 06:41:45;;;;;;;2.15;1.20;;;;;;;-5.29;60.90;98035.72;1615080;89;21597;-66
2021/01/18 06:47:39;;;;;;;1.22;1.15;;;;;;;-5.24;61.59;98049.95;1700028;84;21237;-68
2021/01/18 06:53:49;;;;;;;0.78;0.68;;;;;;;-5.13;61.48;98046.66;1700286;84;21557;-68
2021/01/18 07:00:17;;;;;;;0.47;0.47;;;;;;;-5.04;61.69;98051.47;1700089;84;21553;-69
2021/01/18 07:05:54;;;;;;;0.88;0.82;;;;;;;-5.04;62.27;98065.39;1704115;83;21194;-68
2021/01/18 07:08:27;;;;;;;0.80;0.80;;;;;;;-5.13;62.40;98063.12;1700616;82;21192;-67
2021/01/18 07:11:01;;;;;;;1.22;1.12;;;;;;;-5.12;62.71;98064.78;1698496;83;21165;-67
2021/01/18 07:13:32;;;;;;;1.80;0.95;;;;;;;-5.21;63.93;98067.14;1698850;83;21203;-68
2021/01/18 07:16:02;;;;;;;1.35;0.88;;;;;;;-5.17;63.81;98071.70;1701710;82;21714;-68
2021/01/18 07:18:34;;;;;;;1.47;0.68;;;;;;;-5.14;63.66;98069.91;1698931;84;21608;-69
2021/01/18 07:21:04;;;;;;;0.80;0.80;;;;;;;-5.04;63.39;98071.73;1699855;83;21355;-68
2021/01/18 07:23:37;;;;;;;0.37;0.35;;;;;;;-4.97;63.26;98078.27;1698874;83;21181;-67
2021/01/18 07:26:11;;;;;;;1.10;0.68;;;;;;;-4.90;63.22;98074.67;1698684;83;21174;-67
2021/01/18 07:28:42;;;;;;;1.98;1.50;;;;;;;-4.87;63.42;98077.14;1697090;83;21458;-67
2021/01/18 07:31:14;;;;;;;2.98;1.52;;;;;;;-4.87;63.46;98070.80;1664817;86;21196;-69
2021/01/18 07:33:45;;;;;;;5.80;5.22;;;;;;;-4.90;64.48;98076.77;1665016;85;21629;-68
2021/01/18 07:36:44;;;;;;;1.55;1.40;;;;;;;-4.90;64.49;98082.27;1698613;84;21165;-65
2021/01/18 07:39:30;;;;;;;0.55;0.35;;;;;;;-4.92;64.97;98072.63;1702076;84;21176;-69
2021/01/18 07:42:00;;;;;;;0.53;0.50;;;;;;;-4.95;65.10;98084.12;1701452;83;21150;-66
2021/01/18 07:45:13;;;;;;;3.02;0.57;;;;;;;-4.89;65.31;98086.47;1701024;84;21200;-67
2021/01/18 07:48:04;;;;;;;1.65;1.30;;;;;;;-4.79;64.77;98089.14;1645981;86;21163;-65
2021/01/18 07:50:38;;;;;;;1.07;0.95;;;;;;;-4.80;64.60;98087.03;1676535;85;21179;-65
2021/01/18 07:53:12;;;;;;;1.22;1.17;;;;;;;-4.68;64.12;98083.73;1653452;85;21214;-65
2021/01/18 07:56:02;;;;;;;0.35;0.35;;;;;;;-4.66;63.59;98081.97;1653152;85;21619;-65
2021/01/18 07:58:31;;;;;;;0.98;0.65;;;;;;;-4.56;63.34;98079.13;1675754;85;21597;-71
2021/01/18 08:01:08;;;;;;;1.00;0.90;;;;;;;-4.48;63.49;98076.36;1655792;87;21688;-70
2021/01/18 08:03:36;;;;;;;0.85;0.80;;;;;;;-4.44;63.71;98077.92;1674522;86;21183;-70
2021/01/18 08:06:09;;;;;;;0.75;0.75;;;;;;;-4.41;63.24;98079.91;1657115;86;21173;-71
2021/01/18 08:08:38;;;;;;;1.72;0.93;;;;;;;-4.35;63.03;98073.37;1674408;86;21190;-66
2021/01/18 08:11:26;;;;;;;1.45;0.70;;;;;;;-4.28;62.84;98082.89;1657361;86;21161;-69
2021/01/18 08:13:59;;;;;;;1.10;1.07;;;;;;;-4.26;62.93;98075.22;1708075;83;21609;-68
2021/01/18 08:16:40;;;;;;;0.95;0.75;;;;;;;-4.16;62.82;98079.14;1708035;83;21180;-61
2021/01/18 08:19:39;;;;;;;1.60;0.68;;;;;;;-4.01;69.74;98077.36;1743854;79;21152;-61
2021/01/18 08:22:09;;;;;;;0.47;0.47;;;;;;;-3.70;70.15;98085.60;1623673;88;21195;-61
2021/01/18 08:24:47;;;;;;;2.47;1.55;;;;;;;-3.40;68.01;98084.53;1624005;87;21169;-61
2021/01/18 08:27:16;;;;;;;0.68;0.68;;;;;;;-3.29;65.00;98081.59;1624243;88;21588;-64
2021/01/18 08:29:56;;;;;;;1.25;1.00;;;;;;;-3.24;64.36;98084.81;1624264;87;21761;-64
2021/01/18 08:32:34;;;;;;;1.70;1.57;;;;;;;-3.26;62.37;98086.56;1624198;88;21602;-64
2021/01/18 08:35:32;;;;;;;1.52;0.88;;;;;;;-3.37;62.09;98098.81;1624309;88;21174;-64
2021/01/18 08:38:10;;;;;;;1.17;1.00;;;;;;;-3.27;62.33;98094.25;1647376;87;21229;-65
2021/01/18 08:41:05;;;;;;;2.58;1.12;;;;;;;-3.20;62.58;98098.23;1618563;88;21250;-70
2021/01/18 08:43:49;;;;;;;1.45;1.22;;;;;;;-3.25;62.00;98101.36;1653459;87;21640;-68
2021/01/18 08:46:34;;;;;;;1.45;1.35;;;;;;;-3.35;61.96;98111.03;1650479;87;21208;-71
2021/01/18 08:49:36;;;;;;;0.55;0.40;;;;;;;-3.26;62.08;98104.34;1624101;87;21204;-72
2021/01/18 08:52:31;;;;;;;1.10;1.10;;;;;;;-3.19;61.50;98108.31;1639926;87;21197;-70
2021/01/18 08:58:23;;;;;;;0.78;0.62;;;;;;;-3.17;61.24;98107.83;1675734;84;21158;-69
2021/01/18 09:01:30;;;;;;;0.85;0.85;;;;;;;-3.20;60.93;98109.66;1680043;83;21153;-68
2021/01/18 09:04:24;;;;;;;0.62;0.53;;;;;;;-3.13;60.53;98113.63;1651940;87;21209;-64
2021/01/18 09:07:11;;;;;;;0.72;0.57;;;;;;;-3.19;59.95;98107.04;1692276;85;21184;-64
2021/01/18 09:10:05;;;;;;;1.80;1.35;;;;;;;-3.09;60.86;98106.28;1694487;83;21184;-65
2021/01/18 09:13:10;;;;;;;1.72;1.62;;;;;;;-3.08;60.50;98098.62;1619435;88;21604;-65
2021/01/18 09:15:53;;;;;;;2.45;1.32;;;;;;;-2.98;60.19;98102.47;1712331;83;21139;-64
2021/01/18 09:18:44;;;;;;;1.72;1.00;;;;;;;-2.93;59.67;98098.49;1700370;84;21177;-65
2021/01/18 09:21:27;;;;;;;1.75;0.62;;;;;;;-2.95;58.18;98104.05;1757544;81;21178;-65
2021/01/18 09:24:01;;;;;;;4.10;1.55;;;;;;;-2.91;59.45;98097.53;1732150;81;21201;-65
2021/01/18 09:26:35;;;;;;;0.50;0.50;;;;;;;-2.84;59.82;98099.40;1733424;81;21165;-64
2021/01/18 09:31:46;;;;;;;11.88;9.35;;;;;;;-2.72;59.31;98092.59;1753328;80;21662;-73
2021/01/18 09:34:15;;;;;;;10.35;8.28;;;;;;;-2.64;59.10;98085.94;1712470;82;21573;-73
2021/01/18 09:36:43;;;;;;;8.08;5.08;;;;;;;-2.60;58.74;98090.02;1712617;82;21185;-70
2021/01/18 09:39:22;;;;;;;0.50;0.42;;;;;;;-2.50;59.49;98090.90;1712304;82;21551;-70
2021/01/18 09:41:55;;;;;;;2.00;1.57;;;;;;;-2.47;58.40;98086.13;1710049;82;21165;-64
2021/01/18 09:44:24;;;;;;;4.35;2.25;;;;;;;-2.47;57.18;98078.06;1712577;82;21173;-64
2021/01/18 09:46:52;;;;;;;2.65;1.80;;;;;;;-2.37;58.00;98073.89;1712418;82;21205;-64
2021/01/18 09:49:25;;;;;;;0.82;0.82;;;;;;;-2.20;58.54;98072.76;1712445;82;21173;-70
2021/01/18 09:51:56;;;;;;;2.20;1.60;;;;;;;-2.00;58.08;98075.33;1712524;82;21185;-70
2021/01/18 09:54:25;;;;;;;2.45;2.00;;;;;;;-1.83;57.50;98071.66;1709509;82;21202;-70
2021/01/18 09:56:56;;;;;;;3.30;1.50;;;;;;;-1.76;56.00;98073.05;1698685;82;21145;-70
2021/01/18 09:59:27;;;;;;;1.98;1.07;;;;;;;-1.76;53.72;98071.77;1709127;82;21181;-70
2021/01/18 10:01:58;;;;;;;2.80;1.47;;;;;;;-1.63;55.10;98072.89;1717228;82;21191;-70
2021/01/18 10:04:29;;;;;;;2.30;1.98;;;;;;;-1.64;53.96;98076.34;1731206;82;21619;-71
2021/01/18 10:07:26;;;;;;;2.80;1.82;;;;;;;-1.69;53.49;98073.61;1741877;82;21626;-70
2021/01/18 10:09:58;;;;;;;6.35;1.12;;;;;;;-1.58;55.99;98066.33;1765710;81;21164;-70
2021/01/18 10:12:55;;;;;;;;;;;;;;;;;;;;;
2021/01/18 10:15:29;;;;;;;3.33;1.42;;;;;;;-1.54;54.27;98062.77;1752179;82;21158;-69
2021/01/18 10:17:59;;;;;;;1.77;1.40;;;;;;;-1.43;55.37;98074.58;1734056;81;21152;-68
2021/01/18 10:20:28;;;;;;;2.52;2.27;;;;;;;-1.61;53.06;98073.67;1734143;81;21575;-64
2021/01/18 10:22:58;;;;;;;2.52;1.98;;;;;;;-1.61;53.06;98073.67;1733782;81;21187;-64
2021/01/18 10:25:28;;;;;;;2.77;2.08;;;;;;;-1.82;52.71;98075.00;1718656;83;21231;-64
2021/01/18 10:27:58;;;;;;;1.30;1.12;;;;;;;-2.35;54.21;98075.48;1704217;83;21171;-64
2021/01/18 10:30:28;;;;;;;1.65;1.42;;;;;;;-2.34;54.31;98068.67;1704362;83;21202;-64
2021/01/18 10:32:58;;;;;;;1.27;1.02;;;;;;;-2.27;54.96;98070.91;1704271;83;21569;-64
2021/01/18 10:35:31;;;;;;;1.72;1.62;;;;;;;-2.59;54.99;98075.99;1705012;83;21173;-65
2021/01/18 10:38:22;;;;;;;1.98;1.07;;;;;;;-2.50;56.03;98076.08;1705267;84;21212;-65
2021/01/18 10:41:08;;;;;;;1.35;1.25;;;;;;;-2.43;56.56;98074.52;1694467;83;21180;-64
2021/01/18 10:43:39;;;;;;;0.80;0.65;;;;;;;-2.42;56.25;98079.98;1720123;83;21153;-64
2021/01/18 10:46:21;;;;;;;1.80;1.57;;;;;;;-2.41;56.79;98080.34;1723354;82;21309;-69
2021/01/18 10:48:58;;;;;;;3.15;1.60;;;;;;;-2.37;56.80;98078.51;1734331;81;21185;-64
2021/01/18 10:51:29;;;;;;;1.85;1.35;;;;;;;-2.32;57.36;98070.27;1724222;82;21174;-64
2021/01/18 10:53:59;;;;;;;2.35;1.70;;;;;;;-2.29;57.33;98075.66;1753345;80;21605;-65
2021/01/18 10:56:33;;;;;;;0.85;0.85;;;;;;;-2.31;57.56;98069.82;1724836;81;21658;-64
2021/01/18 10:59:02;;;;;;;2.50;1.37;;;;;;;-2.32;57.60;98064.34;1753373;81;21152;-64
2021/01/18 11:01:50;;;;;;;2.47;1.87;;;;;;;-2.34;57.76;98068.67;1733842;82;21160;-70
2021/01/18 11:04:20;;;;;;;4.08;2.70;;;;;;;-2.32;58.30;98062.63;1643240;87;21451;-71
2021/01/18 11:06:49;;;;;;;3.47;2.17;;;;;;;-2.28;58.81;98060.79;1654738;86;21216;-71
2021/01/18 11:09:30;;;;;;;6.30;3.00;;;;;;;-2.28;58.87;98061.62;1654716;87;21328;-72
2021/01/18 11:12:01;;;;;;;5.78;2.58;;;;;;;-2.20;59.08;98060.04;1654691;86;21188;-65
2021/01/18 11:14:30;;;;;;;3.25;2.27;;;;;;;-2.14;59.08;98058.06;1654639;87;21245;-65
2021/01/18 11:17:07;;;;;;;2.02;1.35;;;;;;;-2.07;59.29;98059.49;1654887;86;21684;-66
2021/01/18 11:19:37;;;;;;;2.72;1.52;;;;;;;-2.01;59.43;98057.95;1654760;86;21183;-65
2021/01/18 11:22:05;;;;;;;5.97;1.55;;;;;;;-1.97;59.53;98058.66;1655087;87;21156;-64
2021/01/18 11:24:34;;;;;;;4.00;2.25;;;;;;;-1.95;59.67;98063.25;1654707;86;21184;-66
2021/01/18 11:27:24;;;;;;;6.67;1.52;;;;;;;-1.86;59.67;98059.47;1654545;87;21153;-65
2021/01/18 11:29:52;;;;;;;2.10;1.80;;;;;;;-1.81;59.43;98063.49;1666643;85;21188;-65
2021/01/18 11:32:21;;;;;;;2.27;2.08;;;;;;;-1.72;59.39;98062.28;1702737;83;21641;-65
2021/01/18 11:34:49;;;;;;;2.33;1.98;;;;;;;-1.60;59.42;98057.50;1703041;83;21287;-65
2021/01/18 11:37:17;;;;;;;3.60;2.02;;;;;;;-1.46;59.21;98055.63;1703056;83;21217;-66
2021/01/18 11:39:46;;;;;;;1.65;1.55;;;;;;;-1.33;58.71;98055.92;1702856;83;21977;-72
2021/01/18 11:42:15;;;;;;;3.72;2.62;;;;;;;-1.18;58.46;98046.32;1702914;83;21595;-72
2021/01/18 11:44:44;;;;;;;19.85;14.40;;;;;;;-1.03;58.24;98049.01;1703439;83;21173;-72
2021/01/18 11:47:12;;;;;;;18.55;13.32;;;;;;;-1.02;55.25;98041.75;1703411;83;21168;-66
2021/01/18 11:49:42;;;;;;;15.40;8.70;;;;;;;-0.64;57.19;98045.52;1700005;83;21587;-65
2021/01/18 11:52:12;;;;;;;27.87;15.65;;;;;;;-0.39;57.53;98028.17;1709899;83;21166;-66
2021/01/18 11:54:40;;;;;;;45.03;21.93;;;;;;;0.70;51.39;98021.80;1717657;82;21328;-66
2021/01/18 11:57:08;;;;;;;6.53;4.28;;;;;;;0.70;51.39;98021.80;1710631;82;21169;-65
2021/01/18 11:59:39;;;;;;;3.70;2.05;;;;;;;0.99;51.92;98024.06;1705357;83;21578;-66
2021/01/18 12:02:20;;;;;;;5.17;2.52;;;;;;;1.24;54.32;98024.41;1709958;83;21178;-66
2021/01/18 12:04:50;;;;;;;2.90;1.52;;;;;;;1.41;51.81;98025.13;1695159;84;21171;-66
2021/01/18 12:07:20;;;;;;;3.60;1.72;;;;;;;1.66;51.20;98025.05;1663600;85;21599;-72
2021/01/18 12:09:49;;;;;;;5.15;2.40;;;;;;;2.02;50.60;98024.24;1669957;85;21576;-72
2021/01/18 12:12:17;;;;;;;6.03;3.10;;;;;;;2.27;48.71;98017.22;1676549;85;21178;-65
2021/01/18 12:14:46;;;;;;;4.28;2.42;;;;;;;2.57;48.70;98017.16;1676193;84;21635;-70
2021/01/18 12:17:14;;;;;;;4.05;2.60;;;;;;;3.24;48.57;98014.66;1723466;83;21907;-74
2021/01/18 12:19:45;;;;;;;4.67;2.62;;;;;;;3.97;48.41;98019.41;1706515;84;21188;-74
2021/01/18 12:22:18;;;;;;;3.85;2.65;;;;;;;4.66;45.92;98013.41;1671423;84;21249;-74
2021/01/18 12:24:46;;;;;;;6.83;3.02;;;;;;;4.83;42.40;98015.26;1676555;85;21234;-74
2021/01/18 12:27:14;;;;;;;6.12;3.35;;;;;;;4.89;41.33;98017.42;1676321;85;21179;-72
2021/01/18 12:29:44;;;;;;;9.40;3.98;;;;;;;5.12;42.26;98022.62;1672644;84;21171;-74
2021/01/18 12:32:12;;;;;;;7.58;4.08;;;;;;;4.43;41.61;98023.60;1702126;84;21583;-75
2021/01/18 12:34:40;;;;;;;6.60;3.70;;;;;;;4.39;41.87;98027.30;1702661;83;21162;-73
2021/01/18 12:37:09;;;;;;;4.87;3.27;;;;;;;4.20;42.75;98034.94;1664731;86;21239;-72
2021/01/18 12:39:37;;;;;;;4.85;2.42;;;;;;;4.47;44.16;98034.87;1661516;85;21604;-75
2021/01/18 12:42:06;;;;;;;6.25;3.27;;;;;;;4.32;44.18;98033.30;1651893;86;21180;-74